Aérodrome :
LOGIN :

S'inscrire | Disclaimer

   EN    FR    IT 

 










Légende :    VFR   VFR Marginal   IFR   IFR Intensif   IFR Très Intensif
Visi : 
Plafond : 
>= 8 km
>= 3000ft
5 à 8 km
1000 à 3000 ft
1500m à 5 km
500 à 1000 ft
800 à 1500m
200 à 500 ft
< 800m
< 200 ft
Symboles :   Orages  Brouillard  Fortes neiges  Fortes précipitations  Vent > 20 kt
SIGMETs :   Divers  Orages  Givrage  Turbulence  Onde Orograph.  Cendres Volcan.







- Altitude de l'aérodrome : 16 ft
- Code IATA : SDR


LEXJ - Santander Cantabria

DERNIER METAR :
  • 231630Z 02002KT CAVOK 18/11 Q1026

METARs EXPIRÉS :
  • 231600Z VRB02KT CAVOK 18/12 Q1026
  • 231530Z 06003KT 020V100 CAVOK 18/12 Q1026
  • 231500Z 03003KT 350V070 CAVOK 18/12 Q1026
  • 231430Z 05003KT 010V100 CAVOK 18/12 Q1026
  • 231400Z 06004KT 010V100 CAVOK 18/12 Q1026

TAF TAF LEXJ
Valide du 23 à 15h jusqu'au 24 à 15h UTC


231400Z 2315/2415 07007KT CAVOK TX21/2414Z TN10/2405Z
Pas de NOTAMs connus pour ce terrain.



MET'MAP, la Météo Aéronautique d'un coup d'oeil ! - Copyright ORBIFLY Décembre 2007 - Disclaimer

ORBIFLY MET'MAP TEAM :

Programmation & Développement : Alexandra Zaïnal
Conception & Développement : Baudouin d'Aumeries
Co-Programmation & Développement : Marc-Olivier Méhu
Soutien technique & logistique : Manuel Goepfert

Contact : metmap@orbifly.com




SOURCES & CREDITS :

   NOAA